sensor_id;sensor_type;location;lat;lon;timestamp;pressure;altitude;pressure_sealevel;temperature;humidity
64115;BME280;62188;35.640;139.748;2024-02-28T00:02:09;102256.10;;;10.02;24.22
64115;BME280;62188;35.640;139.748;2024-02-28T00:04:33;102263.93;;;9.29;24.17
64115;BME280;62188;35.640;139.748;2024-02-28T00:06:59;102267.83;;;9.14;24.60
64115;BME280;62188;35.640;139.748;2024-02-28T00:09:25;102271.74;;;9.69;24.01
64115;BME280;62188;35.640;139.748;2024-02-28T00:11:51;102267.38;;;9.94;23.64
64115;BME280;62188;35.640;139.748;2024-02-28T00:14:17;102268.42;;;10.43;23.98
64115;BME280;62188;35.640;139.748;2024-02-28T00:16:44;102271.39;;;9.53;23.55
64115;BME280;62188;35.640;139.748;2024-02-28T00:19:07;102279.71;;;10.16;23.70
64115;BME280;62188;35.640;139.748;2024-02-28T00:21:34;102279.47;;;10.31;23.41
64115;BME280;62188;35.640;139.748;2024-02-28T00:24:02;102275.38;;;9.26;24.04
64115;BME280;62188;35.640;139.748;2024-02-28T00:26:25;102280.74;;;9.76;23.74
64115;BME280;62188;35.640;139.748;2024-02-28T00:28:53;102278.41;;;10.28;23.34
64115;BME280;62188;35.640;139.748;2024-02-28T00:31:16;102292.15;;;9.48;23.20
64115;BME280;62188;35.640;139.748;2024-02-28T00:33:43;102282.82;;;10.10;23.09
64115;BME280;62188;35.640;139.748;2024-02-28T00:36:07;102289.53;;;11.03;22.82
64115;BME280;62188;35.640;139.748;2024-02-28T00:38:32;102286.83;;;10.65;22.59
64115;BME280;62188;35.640;139.748;2024-02-28T00:40:59;102282.50;;;10.37;22.42
64115;BME280;62188;35.640;139.748;2024-02-28T00:43:25;102290.58;;;10.74;22.17
64115;BME280;62188;35.640;139.748;2024-02-28T00:45:50;102296.69;;;11.39;22.30
64115;BME280;62188;35.640;139.748;2024-02-28T00:48:17;102303.44;;;11.64;21.98
64115;BME280;62188;35.640;139.748;2024-02-28T00:50:42;102284.53;;;10.48;22.06
64115;BME280;62188;35.640;139.748;2024-02-28T00:53:06;102288.58;;;10.51;21.76
64115;BME280;62188;35.640;139.748;2024-02-28T00:55:32;102285.40;;;10.59;21.90
64115;BME280;62188;35.640;139.748;2024-02-28T00:57:57;102275.37;;;9.72;22.19
64115;BME280;62188;35.640;139.748;2024-02-28T01:00:24;102278.19;;;10.71;22.38
64115;BME280;62188;35.640;139.748;2024-02-28T01:02:50;102276.44;;;10.39;22.85
64115;BME280;62188;35.640;139.748;2024-02-28T01:05:15;102282.54;;;11.25;22.65
64115;BME280;62188;35.640;139.748;2024-02-28T01:07:40;102276.14;;;11.28;21.71
64115;BME280;62188;35.640;139.748;2024-02-28T01:10:07;102271.17;;;11.47;21.58
64115;BME280;62188;35.640;139.748;2024-02-28T01:12:32;102264.60;;;11.85;21.27
64115;BME280;62188;35.640;139.748;2024-02-28T01:14:59;102263.78;;;11.48;21.03
64115;BME280;62188;35.640;139.748;2024-02-28T01:17:24;102265.07;;;11.95;21.49
64115;BME280;62188;35.640;139.748;2024-02-28T01:19:50;102272.51;;;11.91;21.38
64115;BME280;62188;35.640;139.748;2024-02-28T01:22:14;102276.85;;;12.57;20.76
64115;BME280;62188;35.640;139.748;2024-02-28T01:24:39;102268.93;;;12.73;20.68
64115;BME280;62188;35.640;139.748;2024-02-28T01:27:05;102278.71;;;12.77;20.59
64115;BME280;62188;35.640;139.748;2024-02-28T01:29:31;102275.46;;;13.23;20.51
64115;BME280;62188;35.640;139.748;2024-02-28T01:31:56;102261.45;;;12.65;20.28
64115;BME280;62188;35.640;139.748;2024-02-28T01:34:22;102271.12;;;12.98;20.57
64115;BME280;62188;35.640;139.748;2024-02-28T01:36:48;102272.46;;;11.85;20.64
64115;BME280;62188;35.640;139.748;2024-02-28T01:39:13;102279.02;;;11.89;20.57
64115;BME280;62188;35.640;139.748;2024-02-28T01:41:38;102273.45;;;12.50;20.60
64115;BME280;62188;35.640;139.748;2024-02-28T01:44:05;102275.75;;;11.41;21.08
64115;BME280;62188;35.640;139.748;2024-02-28T01:46:31;102259.86;;;12.19;20.91
64115;BME280;62188;35.640;139.748;2024-02-28T01:48:56;102267.58;;;12.73;20.68
64115;BME280;62188;35.640;139.748;2024-02-28T01:51:22;102269.28;;;12.69;20.66
64115;BME280;62188;35.640;139.748;2024-02-28T01:53:47;102261.96;;;13.18;20.43
64115;BME280;62188;35.640;139.748;2024-02-28T01:56:14;102268.39;;;13.12;20.28
64115;BME280;62188;35.640;139.748;2024-02-28T01:58:40;102260.03;;;13.41;20.66
64115;BME280;62188;35.640;139.748;2024-02-28T02:01:05;102261.96;;;12.51;20.45
64115;BME280;62188;35.640;139.748;2024-02-28T02:03:29;102258.18;;;11.66;21.04
64115;BME280;62188;35.640;139.748;2024-02-28T02:05:54;102254.84;;;12.15;20.79
64115;BME280;62188;35.640;139.748;2024-02-28T02:08:20;102248.72;;;12.98;20.60
64115;BME280;62188;35.640;139.748;2024-02-28T02:10:45;102255.10;;;13.46;19.97
64115;BME280;62188;35.640;139.748;2024-02-28T02:13:11;102244.07;;;12.08;20.24
64115;BME280;62188;35.640;139.748;2024-02-28T02:15:37;102238.00;;;12.50;20.25
64115;BME280;62188;35.640;139.748;2024-02-28T02:18:02;102239.55;;;12.45;20.36
64115;BME280;62188;35.640;139.748;2024-02-28T02:20:32;102231.69;;;13.37;20.28
64115;BME280;62188;35.640;139.748;2024-02-28T02:22:54;102232.36;;;14.08;19.96
64115;BME280;62188;35.640;139.748;2024-02-28T02:25:22;102227.05;;;13.75;19.42
64115;BME280;62188;35.640;139.748;2024-02-28T02:27:44;102216.66;;;12.86;19.29
64115;BME280;62188;35.640;139.748;2024-02-28T02:30:11;102213.14;;;13.41;19.26
64115;BME280;62188;35.640;139.748;2024-02-28T02:32:36;102209.08;;;14.25;18.94
64115;BME280;62188;35.640;139.748;2024-02-28T02:35:01;102204.13;;;14.63;18.55
64115;BME280;62188;35.640;139.748;2024-02-28T02:37:27;102192.73;;;14.22;18.54
64115;BME280;62188;35.640;139.748;2024-02-28T02:39:54;102195.62;;;14.41;18.36
64115;BME280;62188;35.640;139.748;2024-02-28T02:42:18;102193.21;;;14.08;18.40
64115;BME280;62188;35.640;139.748;2024-02-28T02:44:45;102182.32;;;13.28;19.27
64115;BME280;62188;35.640;139.748;2024-02-28T02:47:09;102180.75;;;13.27;19.12
64115;BME280;62188;35.640;139.748;2024-02-28T02:49:35;102184.86;;;12.22;19.87
64115;BME280;62188;35.640;139.748;2024-02-28T02:52:00;102172.44;;;13.13;19.62
64115;BME280;62188;35.640;139.748;2024-02-28T02:54:26;102162.29;;;13.46;19.61
64115;BME280;62188;35.640;139.748;2024-02-28T02:56:53;102134.19;;;12.80;19.16
64115;BME280;62188;35.640;139.748;2024-02-28T02:59:18;102140.57;;;11.89;19.41
64115;BME280;62188;35.640;139.748;2024-02-28T03:01:43;102141.57;;;13.07;19.29
64115;BME280;62188;35.640;139.748;2024-02-28T03:04:09;102141.80;;;14.10;19.14
64115;BME280;62188;35.640;139.748;2024-02-28T03:06:36;102129.97;;;14.39;18.48
64115;BME280;62188;35.640;139.748;2024-02-28T03:09:03;102139.67;;;14.58;18.08
64115;BME280;62188;35.640;139.748;2024-02-28T03:11:25;102127.63;;;13.48;18.04
64115;BME280;62188;35.640;139.748;2024-02-28T03:13:51;102125.26;;;13.89;18.37
64115;BME280;62188;35.640;139.748;2024-02-28T03:16:16;102126.21;;;14.55;18.81
64115;BME280;62188;35.640;139.748;2024-02-28T03:18:42;102127.84;;;14.71;18.38
64115;BME280;62188;35.640;139.748;2024-02-28T03:21:07;102136.89;;;15.24;17.81
64115;BME280;62188;35.640;139.748;2024-02-28T03:23:34;102133.38;;;14.77;17.61
64115;BME280;62188;35.640;139.748;2024-02-28T03:26:00;102125.50;;;13.79;17.66
64115;BME280;62188;35.640;139.748;2024-02-28T03:28:26;102126.89;;;14.24;18.11
64115;BME280;62188;35.640;139.748;2024-02-28T03:30:51;102130.51;;;14.74;18.00
64115;BME280;62188;35.640;139.748;2024-02-28T03:33:15;102126.57;;;15.17;18.02
64115;BME280;62188;35.640;139.748;2024-02-28T03:35:40;102125.68;;;15.41;18.11
64115;BME280;62188;35.640;139.748;2024-02-28T03:38:06;102127.94;;;15.70;18.12
64115;BME280;62188;35.640;139.748;2024-02-28T03:40:31;102121.81;;;14.61;17.55
64115;BME280;62188;35.640;139.748;2024-02-28T03:42:58;102133.24;;;14.96;17.96
64115;BME280;62188;35.640;139.748;2024-02-28T03:45:23;102128.06;;;14.32;18.24
64115;BME280;62188;35.640;139.748;2024-02-28T03:47:49;102134.19;;;14.47;18.17
64115;BME280;62188;35.640;139.748;2024-02-28T03:50:14;102129.16;;;14.61;18.46
64115;BME280;62188;35.640;139.748;2024-02-28T03:52:40;102122.85;;;13.89;18.62
64115;BME280;62188;35.640;139.748;2024-02-28T03:55:06;102123.50;;;13.97;18.86
64115;BME280;62188;35.640;139.748;2024-02-28T03:57:30;102126.17;;;14.72;18.39
64115;BME280;62188;35.640;139.748;2024-02-28T03:59:56;102130.23;;;15.05;18.20
64115;BME280;62188;35.640;139.748;2024-02-28T04:02:22;102127.69;;;15.52;17.90
64115;BME280;62188;35.640;139.748;2024-02-28T04:04:47;102117.59;;;14.94;18.31
64115;BME280;62188;35.640;139.748;2024-02-28T04:07:15;102116.95;;;15.63;18.18
64115;BME280;62188;35.640;139.748;2024-02-28T04:09:38;102115.74;;;15.58;17.92
64115;BME280;62188;35.640;139.748;2024-02-28T04:12:05;102106.94;;;16.18;17.77
64115;BME280;62188;35.640;139.748;2024-02-28T04:14:29;102108.38;;;16.29;17.24
64115;BME280;62188;35.640;139.748;2024-02-28T04:16:56;102116.67;;;15.40;16.98
64115;BME280;62188;35.640;139.748;2024-02-28T04:19:20;102105.51;;;14.99;17.54
64115;BME280;62188;35.640;139.748;2024-02-28T04:21:48;102097.70;;;15.97;17.50
64115;BME280;62188;35.640;139.748;2024-02-28T04:24:11;102091.85;;;15.50;16.88
64115;BME280;62188;35.640;139.748;2024-02-28T04:26:37;102092.07;;;15.15;17.14
64115;BME280;62188;35.640;139.748;2024-02-28T04:29:03;102094.21;;;14.05;17.28
64115;BME280;62188;35.640;139.748;2024-02-28T04:31:28;102096.24;;;14.30;17.53
64115;BME280;62188;35.640;139.748;2024-02-28T04:33:53;102092.75;;;14.18;17.47
64115;BME280;62188;35.640;139.748;2024-02-28T04:36:19;102090.43;;;13.88;17.35
64115;BME280;62188;35.640;139.748;2024-02-28T04:38:45;102088.55;;;14.51;17.49
64115;BME280;62188;35.640;139.748;2024-02-28T04:43:36;102080.86;;;15.56;17.20
64115;BME280;62188;35.640;139.748;2024-02-28T04:46:04;102071.83;;;16.11;16.74
64115;BME280;62188;35.640;139.748;2024-02-28T04:48:28;102068.63;;;16.87;16.27
64115;BME280;62188;35.640;139.748;2024-02-28T04:50:54;102061.62;;;17.22;16.82
64115;BME280;62188;35.640;139.748;2024-02-28T04:53:18;102061.29;;;17.42;16.32
64115;BME280;62188;35.640;139.748;2024-02-28T04:55:43;102056.27;;;17.68;15.95
64115;BME280;62188;35.640;139.748;2024-02-28T04:58:09;102060.56;;;17.57;16.00
64115;BME280;62188;35.640;139.748;2024-02-28T05:00:36;102052.17;;;16.75;16.39
64115;BME280;62188;35.640;139.748;2024-02-28T05:03:00;102049.04;;;16.65;16.29
64115;BME280;62188;35.640;139.748;2024-02-28T05:05:26;102043.74;;;16.55;16.45
64115;BME280;62188;35.640;139.748;2024-02-28T05:07:50;102047.75;;;15.97;16.11
64115;BME280;62188;35.640;139.748;2024-02-28T05:10:16;102047.79;;;15.11;16.75
64115;BME280;62188;35.640;139.748;2024-02-28T05:12:43;102041.86;;;14.90;17.02
64115;BME280;62188;35.640;139.748;2024-02-28T05:15:09;102047.01;;;14.98;16.44
64115;BME280;62188;35.640;139.748;2024-02-28T05:17:33;102047.76;;;14.81;16.61
64115;BME280;62188;35.640;139.748;2024-02-28T05:19:59;102049.66;;;13.65;16.84
64115;BME280;62188;35.640;139.748;2024-02-28T05:22:24;102041.53;;;13.67;17.11
64115;BME280;62188;35.640;139.748;2024-02-28T05:24:50;102043.61;;;13.31;16.91
64115;BME280;62188;35.640;139.748;2024-02-28T05:27:15;102025.05;;;12.50;16.95
64115;BME280;62188;35.640;139.748;2024-02-28T05:29:41;102029.00;;;13.15;16.94
64115;BME280;62188;35.640;139.748;2024-02-28T05:32:06;102021.86;;;13.06;16.71
64115;BME280;62188;35.640;139.748;2024-02-28T05:34:33;102018.33;;;12.79;17.45
64115;BME280;62188;35.640;139.748;2024-02-28T05:36:58;102013.84;;;13.21;17.43
64115;BME280;62188;35.640;139.748;2024-02-28T05:39:24;102022.23;;;13.37;17.73
64115;BME280;62188;35.640;139.748;2024-02-28T05:44:14;102021.78;;;12.95;17.79
64115;BME280;62188;35.640;139.748;2024-02-28T05:46:41;102029.05;;;13.06;17.73
64115;BME280;62188;35.640;139.748;2024-02-28T05:49:05;102027.03;;;12.91;16.98
64115;BME280;62188;35.640;139.748;2024-02-28T05:51:31;102019.46;;;12.74;17.49
64115;BME280;62188;35.640;139.748;2024-02-28T05:53:56;102022.12;;;12.58;17.86
64115;BME280;62188;35.640;139.748;2024-02-28T05:56:22;102027.36;;;12.79;18.03
64115;BME280;62188;35.640;139.748;2024-02-28T05:58:49;102038.49;;;12.71;17.64
64115;BME280;62188;35.640;139.748;2024-02-28T06:01:16;102035.86;;;12.24;17.79
64115;BME280;62188;35.640;139.748;2024-02-28T06:03:39;102035.96;;;12.69;17.25
64115;BME280;62188;35.640;139.748;2024-02-28T06:06:05;102033.37;;;12.55;17.21
64115;BME280;62188;35.640;139.748;2024-02-28T06:08:31;102028.40;;;12.85;16.95
64115;BME280;62188;35.640;139.748;2024-02-28T06:10:55;102042.16;;;12.75;17.98
64115;BME280;62188;35.640;139.748;2024-02-28T06:13:22;102046.35;;;12.84;17.11
64115;BME280;62188;35.640;139.748;2024-02-28T06:15:47;102046.26;;;12.76;16.62
64115;BME280;62188;35.640;139.748;2024-02-28T06:18:12;102055.68;;;12.76;16.95
64115;BME280;62188;35.640;139.748;2024-02-28T06:20:38;102059.01;;;12.96;16.92
64115;BME280;62188;35.640;139.748;2024-02-28T06:23:06;102060.84;;;12.61;17.27
64115;BME280;62188;35.640;139.748;2024-02-28T06:25:29;102051.94;;;12.59;17.62
64115;BME280;62188;35.640;139.748;2024-02-28T06:27:54;102051.45;;;12.84;17.90
64115;BME280;62188;35.640;139.748;2024-02-28T06:30:24;102052.69;;;12.79;17.93
64115;BME280;62188;35.640;139.748;2024-02-28T06:32:47;102044.42;;;12.68;18.02
64115;BME280;62188;35.640;139.748;2024-02-28T06:35:13;102058.20;;;12.38;18.06
64115;BME280;62188;35.640;139.748;2024-02-28T06:37:38;102063.33;;;12.88;17.91
64115;BME280;62188;35.640;139.748;2024-02-28T06:40:03;102058.15;;;12.39;17.99
64115;BME280;62188;35.640;139.748;2024-02-28T06:42:28;102054.77;;;12.66;17.99
64115;BME280;62188;35.640;139.748;2024-02-28T06:44:54;102042.95;;;12.60;16.77
64115;BME280;62188;35.640;139.748;2024-02-28T06:47:20;102048.74;;;12.66;16.81
64115;BME280;62188;35.640;139.748;2024-02-28T06:49:45;102039.67;;;12.13;17.62
64115;BME280;62188;35.640;139.748;2024-02-28T06:52:13;102038.61;;;12.02;18.23
64115;BME280;62188;35.640;139.748;2024-02-28T06:54:36;102043.73;;;12.14;18.29
64115;BME280;62188;35.640;139.748;2024-02-28T06:57:02;102039.69;;;12.16;18.25
64115;BME280;62188;35.640;139.748;2024-02-28T06:59:28;102059.84;;;11.76;18.02
64115;BME280;62188;35.640;139.748;2024-02-28T07:01:54;102051.86;;;11.90;18.16
64115;BME280;62188;35.640;139.748;2024-02-28T07:04:20;102058.51;;;11.76;18.80
64115;BME280;62188;35.640;139.748;2024-02-28T07:06:46;102063.06;;;11.57;19.09
64115;BME280;62188;35.640;139.748;2024-02-28T07:09:11;102059.35;;;11.75;19.00
64115;BME280;62188;35.640;139.748;2024-02-28T07:11:37;102065.74;;;11.68;19.28
64115;BME280;62188;35.640;139.748;2024-02-28T07:14:03;102063.34;;;11.84;19.66
64115;BME280;62188;35.640;139.748;2024-02-28T07:16:27;102063.32;;;12.03;19.73
64115;BME280;62188;35.640;139.748;2024-02-28T07:18:54;102062.19;;;12.16;19.81
64115;BME280;62188;35.640;139.748;2024-02-28T07:21:20;102061.98;;;12.53;19.97
64115;BME280;62188;35.640;139.748;2024-02-28T07:23:44;102052.47;;;11.78;19.82
64115;BME280;62188;35.640;139.748;2024-02-28T07:28:34;102064.27;;;11.63;20.08
64115;BME280;62188;35.640;139.748;2024-02-28T07:31:02;102071.08;;;12.20;20.35
64115;BME280;62188;35.640;139.748;2024-02-28T07:33:28;102065.04;;;11.65;19.87
64115;BME280;62188;35.640;139.748;2024-02-28T07:35:53;102084.75;;;11.64;20.39
64115;BME280;62188;35.640;139.748;2024-02-28T07:38:17;102088.21;;;12.05;20.45
64115;BME280;62188;35.640;139.748;2024-02-28T07:40:43;102101.92;;;11.71;20.44
64115;BME280;62188;35.640;139.748;2024-02-28T07:43:09;102113.13;;;11.86;20.16
64115;BME280;62188;35.640;139.748;2024-02-28T07:45:34;102117.83;;;11.28;20.56
64115;BME280;62188;35.640;139.748;2024-02-28T07:48:01;102130.72;;;11.43;20.52
64115;BME280;62188;35.640;139.748;2024-02-28T07:50:25;102132.37;;;11.77;20.40
64115;BME280;62188;35.640;139.748;2024-02-28T07:52:54;102140.86;;;11.49;20.64
64115;BME280;62188;35.640;139.748;2024-02-28T07:55:17;102149.08;;;11.81;20.91
64115;BME280;62188;35.640;139.748;2024-02-28T07:57:43;102155.69;;;11.78;20.76
64115;BME280;62188;35.640;139.748;2024-02-28T08:00:16;102163.72;;;11.71;20.95
64115;BME280;62188;35.640;139.748;2024-02-28T08:02:34;102171.71;;;11.75;20.88
64115;BME280;62188;35.640;139.748;2024-02-28T08:05:01;102169.87;;;12.03;20.93
64115;BME280;62188;35.640;139.748;2024-02-28T08:07:24;102172.55;;;12.16;20.85
64115;BME280;62188;35.640;139.748;2024-02-28T08:09:51;102179.54;;;12.05;20.88
64115;BME280;62188;35.640;139.748;2024-02-28T08:12:17;102183.77;;;12.32;20.76
64115;BME280;62188;35.640;139.748;2024-02-28T08:14:43;102185.43;;;12.31;21.22
64115;BME280;62188;35.640;139.748;2024-02-28T08:17:08;102195.21;;;12.42;21.32
64115;BME280;62188;35.640;139.748;2024-02-28T08:19:33;102204.30;;;11.90;21.13
64115;BME280;62188;35.640;139.748;2024-02-28T08:21:59;102209.35;;;12.21;21.06
64115;BME280;62188;35.640;139.748;2024-02-28T08:24:24;102227.22;;;12.07;21.05
64115;BME280;62188;35.640;139.748;2024-02-28T08:26:50;102237.85;;;11.97;21.01
64115;BME280;62188;35.640;139.748;2024-02-28T08:29:16;102247.21;;;11.94;21.07
64115;BME280;62188;35.640;139.748;2024-02-28T08:31:49;102252.54;;;12.04;21.17
64115;BME280;62188;35.640;139.748;2024-02-28T08:34:08;102259.83;;;11.80;21.13
64115;BME280;62188;35.640;139.748;2024-02-28T08:36:32;102254.51;;;11.72;21.14
64115;BME280;62188;35.640;139.748;2024-02-28T08:38:58;102267.75;;;11.28;21.57
64115;BME280;62188;35.640;139.748;2024-02-28T08:41:23;102273.54;;;11.53;21.59
64115;BME280;62188;35.640;139.748;2024-02-28T08:43:49;102278.82;;;11.66;21.59
64115;BME280;62188;35.640;139.748;2024-02-28T08:46:17;102282.73;;;11.36;21.66
64115;BME280;62188;35.640;139.748;2024-02-28T08:48:42;102287.93;;;11.27;21.37
64115;BME280;62188;35.640;139.748;2024-02-28T08:51:07;102291.07;;;10.99;21.59
64115;BME280;62188;35.640;139.748;2024-02-28T08:53:32;102293.41;;;10.97;21.76
64115;BME280;62188;35.640;139.748;2024-02-28T08:55:59;102297.66;;;11.06;21.63
64115;BME280;62188;35.640;139.748;2024-02-28T08:58:23;102303.92;;;11.09;21.77
64115;BME280;62188;35.640;139.748;2024-02-28T09:00:49;102315.42;;;11.06;21.98
64115;BME280;62188;35.640;139.748;2024-02-28T09:03:14;102323.76;;;11.26;21.71
64115;BME280;62188;35.640;139.748;2024-02-28T09:05:40;102327.84;;;11.26;21.67
64115;BME280;62188;35.640;139.748;2024-02-28T09:08:06;102335.86;;;11.67;21.78
64115;BME280;62188;35.640;139.748;2024-02-28T09:10:31;102340.10;;;11.65;21.58
64115;BME280;62188;35.640;139.748;2024-02-28T09:12:56;102345.01;;;11.69;21.26
64115;BME280;62188;35.640;139.748;2024-02-28T09:15:22;102347.28;;;11.57;21.54
64115;BME280;62188;35.640;139.748;2024-02-28T09:17:48;102356.33;;;11.39;21.60
64115;BME280;62188;35.640;139.748;2024-02-28T09:20:13;102360.64;;;11.01;21.86
64115;BME280;62188;35.640;139.748;2024-02-28T09:22:40;102366.48;;;10.94;21.81
64115;BME280;62188;35.640;139.748;2024-02-28T09:25:08;102372.98;;;10.66;22.09
64115;BME280;62188;35.640;139.748;2024-02-28T09:27:31;102364.10;;;9.71;22.49
64115;BME280;62188;35.640;139.748;2024-02-28T09:29:56;102366.13;;;9.99;22.54
64115;BME280;62188;35.640;139.748;2024-02-28T09:32:23;102373.96;;;10.38;22.58
64115;BME280;62188;35.640;139.748;2024-02-28T09:34:47;102387.28;;;9.98;22.49
64115;BME280;62188;35.640;139.748;2024-02-28T09:37:13;102397.93;;;9.86;22.43
64115;BME280;62188;35.640;139.748;2024-02-28T09:39:40;102398.09;;;9.60;22.67
64115;BME280;62188;35.640;139.748;2024-02-28T09:42:15;102403.01;;;10.04;22.79
64115;BME280;62188;35.640;139.748;2024-02-28T09:44:32;102415.24;;;10.03;22.65
64115;BME280;62188;35.640;139.748;2024-02-28T09:46:55;102417.17;;;10.07;22.79
64115;BME280;62188;35.640;139.748;2024-02-28T09:49:21;102422.35;;;10.02;22.83
64115;BME280;62188;35.640;139.748;2024-02-28T09:51:50;102428.60;;;10.14;22.65
64115;BME280;62188;35.640;139.748;2024-02-28T09:54:12;102430.57;;;10.51;22.70
64115;BME280;62188;35.640;139.748;2024-02-28T09:56:38;102435.33;;;10.04;22.92
64115;BME280;62188;35.640;139.748;2024-02-28T09:59:04;102445.08;;;9.53;23.41
64115;BME280;62188;35.640;139.748;2024-02-28T10:01:30;102444.24;;;9.28;23.31
64115;BME280;62188;35.640;139.748;2024-02-28T10:03:56;102447.02;;;9.53;23.27
64115;BME280;62188;35.640;139.748;2024-02-28T10:06:23;102447.49;;;9.30;23.36
64115;BME280;62188;35.640;139.748;2024-02-28T10:08:50;102450.75;;;8.89;23.73
64115;BME280;62188;35.640;139.748;2024-02-28T10:11:17;102461.26;;;8.86;23.81
64115;BME280;62188;35.640;139.748;2024-02-28T10:13:37;102458.59;;;9.12;23.96
64115;BME280;62188;35.640;139.748;2024-02-28T10:16:06;102465.51;;;8.98;23.90
64115;BME280;62188;35.640;139.748;2024-02-28T10:18:31;102453.78;;;8.87;24.26
64115;BME280;62188;35.640;139.748;2024-02-28T10:20:55;102463.21;;;8.90;24.05
64115;BME280;62188;35.640;139.748;2024-02-28T10:23:23;102468.86;;;8.83;24.00
64115;BME280;62188;35.640;139.748;2024-02-28T10:25:46;102470.58;;;8.22;24.08
64115;BME280;62188;35.640;139.748;2024-02-28T10:28:12;102459.90;;;8.52;24.33
64115;BME280;62188;35.640;139.748;2024-02-28T10:30:41;102462.76;;;8.55;24.11
64115;BME280;62188;35.640;139.748;2024-02-28T10:33:03;102465.96;;;8.85;23.99
64115;BME280;62188;35.640;139.748;2024-02-28T10:35:30;102473.24;;;8.43;24.21
64115;BME280;62188;35.640;139.748;2024-02-28T10:37:54;102475.02;;;8.56;24.27
64115;BME280;62188;35.640;139.748;2024-02-28T10:40:20;102471.19;;;9.40;24.21
64115;BME280;62188;35.640;139.748;2024-02-28T10:42:46;102472.58;;;8.86;24.28
64115;BME280;62188;35.640;139.748;2024-02-28T10:45:11;102478.02;;;8.74;23.85
64115;BME280;62188;35.640;139.748;2024-02-28T10:47:38;102480.55;;;8.95;23.67
64115;BME280;62188;35.640;139.748;2024-02-28T10:50:04;102484.92;;;9.18;24.70
64115;BME280;62188;35.640;139.748;2024-02-28T10:52:29;102482.18;;;9.61;23.60
64115;BME280;62188;35.640;139.748;2024-02-28T10:54:56;102492.35;;;9.35;23.77
64115;BME280;62188;35.640;139.748;2024-02-28T10:57:23;102493.77;;;9.19;23.37
64115;BME280;62188;35.640;139.748;2024-02-28T10:59:46;102502.66;;;8.62;23.77
64115;BME280;62188;35.640;139.748;2024-02-28T11:02:11;102496.69;;;9.11;23.45
64115;BME280;62188;35.640;139.748;2024-02-28T11:04:37;102506.53;;;8.98;23.65
64115;BME280;62188;35.640;139.748;2024-02-28T11:07:03;102498.58;;;8.84;23.89
64115;BME280;62188;35.640;139.748;2024-02-28T11:09:29;102506.42;;;9.08;24.44
64115;BME280;62188;35.640;139.748;2024-02-28T11:11:54;102506.64;;;8.58;24.38
64115;BME280;62188;35.640;139.748;2024-02-28T11:14:20;102513.40;;;9.08;26.56
64115;BME280;62188;35.640;139.748;2024-02-28T11:16:45;102501.52;;;8.96;24.93
64115;BME280;62188;35.640;139.748;2024-02-28T11:19:21;102500.30;;;8.53;24.80
64115;BME280;62188;35.640;139.748;2024-02-28T11:21:36;102483.38;;;7.86;24.83
64115;BME280;62188;35.640;139.748;2024-02-28T11:24:03;102493.17;;;8.14;25.03
64115;BME280;62188;35.640;139.748;2024-02-28T11:26:29;102495.84;;;8.49;24.61
64115;BME280;62188;35.640;139.748;2024-02-28T11:28:53;102500.02;;;8.90;25.28
64115;BME280;62188;35.640;139.748;2024-02-28T11:31:20;102504.39;;;9.21;24.56
64115;BME280;62188;35.640;139.748;2024-02-28T11:33:45;102502.42;;;8.33;24.45
64115;BME280;62188;35.640;139.748;2024-02-28T11:36:14;102504.19;;;8.60;24.30
64115;BME280;62188;35.640;139.748;2024-02-28T11:38:38;102499.27;;;8.74;24.26
64115;BME280;62188;35.640;139.748;2024-02-28T11:41:02;102501.90;;;8.11;24.49
64115;BME280;62188;35.640;139.748;2024-02-28T11:43:27;102509.13;;;8.78;24.27
64115;BME280;62188;35.640;139.748;2024-02-28T11:45:54;102513.00;;;8.43;24.31
64115;BME280;62188;35.640;139.748;2024-02-28T11:48:19;102516.93;;;8.86;25.85
64115;BME280;62188;35.640;139.748;2024-02-28T11:50:45;102517.29;;;9.36;24.98
64115;BME280;62188;35.640;139.748;2024-02-28T11:53:10;102514.70;;;8.79;25.58
64115;BME280;62188;35.640;139.748;2024-02-28T11:55:36;102513.20;;;9.13;24.81
64115;BME280;62188;35.640;139.748;2024-02-28T11:58:02;102512.21;;;9.23;24.21
64115;BME280;62188;35.640;139.748;2024-02-28T12:00:28;102500.86;;;8.86;24.28
64115;BME280;62188;35.640;139.748;2024-02-28T12:05:22;102510.83;;;8.72;25.48
64115;BME280;62188;35.640;139.748;2024-02-28T12:07:45;102510.83;;;8.96;24.34
64115;BME280;62188;35.640;139.748;2024-02-28T12:10:11;102503.78;;;8.63;24.36
64115;BME280;62188;35.640;139.748;2024-02-28T12:12:36;102510.83;;;8.58;24.53
64115;BME280;62188;35.640;139.748;2024-02-28T12:15:01;102510.64;;;8.72;24.87
64115;BME280;62188;35.640;139.748;2024-02-28T12:17:27;102506.21;;;8.63;25.42
64115;BME280;62188;35.640;139.748;2024-02-28T12:19:52;102508.64;;;8.72;24.13
64115;BME280;62188;35.640;139.748;2024-02-28T12:22:21;102502.13;;;8.14;24.24
64115;BME280;62188;35.640;139.748;2024-02-28T12:24:44;102516.07;;;8.19;24.88
64115;BME280;62188;35.640;139.748;2024-02-28T12:27:09;102507.39;;;7.99;24.59
64115;BME280;62188;35.640;139.748;2024-02-28T12:29:35;102519.09;;;7.60;25.30
64115;BME280;62188;35.640;139.748;2024-02-28T12:32:01;102525.67;;;7.93;25.67
64115;BME280;62188;35.640;139.748;2024-02-28T12:34:27;102529.81;;;8.53;25.46